Time;durP1;ratioP1;P1;durP2;ratioP2;P2;SDS_P1;SDS_P2;PMS_P1;PMS_P2;Temp;Humidity;BMP_temperature;BMP_pressure;BME280_temperature;BME280_humidity;BME280_pressure;Samples;Min_cycle;Max_cycle;Signal;HPM_P1;HPM_P2
2021/10/28 00:14:09;;;;;;;11.18;7.63;;;5.00;99.90;;;4.46;96.03;61432.25;5096492;28;20047;-69
2021/10/28 00:16:36;;;;;;;13.07;8.60;;;5.00;99.90;;;4.44;97.09;61430.38;5096995;28;20177;-69
2021/10/28 00:19:04;;;;;;;13.90;9.95;;;5.00;99.90;;;4.42;98.21;61428.38;5094976;28;20427;-69
2021/10/28 00:21:35;;;;;;;23.75;11.88;;;4.90;99.90;;;4.39;99.03;61426.19;5076186;28;20507;-69
2021/10/28 00:24:06;;;;;;;10.93;6.22;;;4.90;99.90;;;4.37;97.91;61423.47;5076914;28;20109;-69
2021/10/28 00:26:42;;;;;;;11.38;6.65;;;5.00;99.90;;;4.35;97.39;61421.28;5080129;28;20071;-69
2021/10/28 00:29:15;;;;;;;10.65;7.18;;;4.90;99.90;;;4.33;97.34;61419.13;5094356;28;20056;-69
2021/10/28 00:31:45;;;;;;;10.98;5.60;;;4.90;99.90;;;4.31;96.88;61417.50;5094183;28;20134;-69
2021/10/28 00:34:14;;;;;;;10.38;5.75;;;5.00;99.90;;;4.29;95.99;61415.75;5050980;28;20054;-69
2021/10/28 00:36:47;;;;;;;8.80;5.50;;;4.90;99.90;;;4.28;95.76;61414.72;5082839;28;20044;-69
2021/10/28 00:39:15;;;;;;;7.43;5.18;;;4.90;99.90;;;4.26;95.18;61412.69;5068894;28;20089;-69
2021/10/28 00:41:42;;;;;;;10.02;5.03;;;4.90;99.90;;;4.23;95.25;61409.88;5081639;28;20127;-68
2021/10/28 00:44:10;;;;;;;11.13;6.20;;;4.80;99.90;;;4.21;95.24;61407.25;5076737;28;20133;-69
2021/10/28 00:46:39;;;;;;;7.00;4.30;;;4.80;99.90;;;4.19;95.58;61405.34;5063888;28;20138;-70
2021/10/28 00:49:10;;;;;;;6.90;4.68;;;4.80;99.90;;;4.18;94.75;61403.84;5086385;28;20074;-70
2021/10/28 00:51:38;;;;;;;7.82;4.95;;;4.80;99.90;;;4.17;94.09;61403.06;5070605;28;20052;-69
2021/10/28 00:54:07;;;;;;;10.10;4.85;;;4.80;99.90;;;4.15;94.82;61401.66;5089837;28;20067;-68
2021/10/28 00:56:34;;;;;;;13.43;5.43;;;4.80;99.90;;;4.13;95.31;61399.47;5088633;28;20140;-69
2021/10/28 00:59:02;;;;;;;9.13;5.07;;;4.70;99.90;;;4.11;97.00;61397.03;5071945;28;20593;-69
2021/10/28 01:01:29;;;;;;;6.35;3.75;;;4.70;99.90;;;4.09;96.26;61395.88;5078478;28;20082;-69
2021/10/28 01:03:57;;;;;;;6.25;3.95;;;4.70;99.90;;;4.08;95.14;61394.41;5071248;28;20044;-68
2021/10/28 01:06:24;;;;;;;7.68;4.30;;;4.70;99.90;;;4.05;95.52;61392.00;5072107;28;20093;-68
2021/10/28 01:08:52;;;;;;;7.93;4.88;;;4.60;99.90;;;4.04;94.45;61390.53;5093824;28;20516;-71
2021/10/28 01:11:20;;;;;;;7.00;3.88;;;4.60;99.90;;;4.02;94.76;61389.22;5070418;28;20040;-69
2021/10/28 01:13:47;;;;;;;11.00;5.10;;;4.60;99.90;;;3.99;96.39;61386.25;5077619;28;20151;-69
2021/10/28 01:16:15;;;;;;;8.77;6.18;;;4.60;99.90;;;3.94;95.72;61380.91;5073979;28;20567;-69
2021/10/28 01:18:42;;;;;;;10.93;6.82;;;4.50;99.90;;;3.90;98.42;61376.47;5087899;28;20071;-69
2021/10/28 01:21:09;;;;;;;7.70;4.82;;;4.40;99.90;;;3.87;97.08;61374.03;5083847;28;20446;-69
2021/10/28 01:23:40;;;;;;;10.98;6.20;;;4.40;99.90;;;3.85;96.12;61371.66;5078008;28;20085;-69
2021/10/28 01:26:12;;;;;;;11.90;6.18;;;4.50;99.90;;;3.83;95.86;61369.72;5090485;28;20047;-69
2021/10/28 01:28:54;;;;;;;9.70;6.20;;;4.50;99.90;;;3.83;95.07;61369.03;5092343;28;20076;-69
2021/10/28 01:31:25;;;;;;;10.85;5.82;;;4.50;99.90;;;3.82;94.46;61367.97;5087412;28;20545;-69
2021/10/28 01:33:56;;;;;;;15.02;6.38;;;4.50;99.90;;;3.81;94.51;61366.88;5069293;28;20048;-69
2021/10/28 01:36:25;;;;;;;13.57;7.57;;;4.50;99.90;;;3.81;93.73;61366.72;5073469;28;20048;-69
2021/10/28 01:38:54;;;;;;;16.15;7.82;;;4.60;99.90;;;3.81;93.11;61366.72;5076110;28;20079;-69
2021/10/28 01:41:22;;;;;;;10.88;6.95;;;4.60;99.90;;;3.80;93.20;61366.00;5074534;28;20048;-69
2021/10/28 01:43:49;;;;;;;10.35;5.63;;;4.60;99.90;;;3.80;93.12;61365.63;5093547;28;20123;-68
2021/10/28 01:46:16;;;;;;;13.82;6.75;;;4.60;99.90;;;3.79;93.49;61364.94;5093417;28;20102;-71
2021/10/28 01:48:43;;;;;;;12.77;6.90;;;4.60;99.90;;;3.78;93.86;61363.69;5074932;28;20149;-71
2021/10/28 01:51:11;;;;;;;33.75;10.52;;;4.60;99.90;;;3.76;95.40;61361.66;5112338;28;20457;-71
2021/10/28 01:53:41;;;;;;;18.45;9.25;;;4.50;99.90;;;3.75;95.51;61360.47;5096028;28;20113;-71
2021/10/28 01:56:09;;;;;;;44.53;10.63;;;4.50;99.90;;;3.73;95.78;61358.69;5096511;28;20497;-70
2021/10/28 01:58:37;;;;;;;45.75;9.88;;;4.40;99.90;;;3.72;95.39;61357.72;5075855;28;20098;-70
2021/10/28 02:01:06;;;;;;;12.88;6.22;;;4.50;99.90;;;3.72;95.03;61356.88;5092556;28;20052;-71
2021/10/28 02:03:34;;;;;;;18.85;7.43;;;4.40;99.90;;;3.71;94.27;61355.66;5066542;28;20048;-71
2021/10/28 02:06:02;;;;;;;13.23;6.45;;;4.40;99.90;;;3.69;94.67;61353.75;5093747;28;20040;-70
2021/10/28 02:08:29;;;;;;;14.23;7.50;;;4.40;99.90;;;3.68;94.65;61352.50;5072608;28;20090;-71
2021/10/28 02:10:56;;;;;;;15.43;7.47;;;4.40;99.90;;;3.66;94.22;61350.97;5056356;28;20044;-71
2021/10/28 02:13:23;;;;;;;26.13;13.05;;;4.40;99.90;;;3.64;95.37;61348.25;5060634;28;20257;-70
2021/10/28 02:15:50;;;;;;;16.17;8.55;;;4.40;99.90;;;3.63;95.26;61346.91;5085381;28;20048;-70
2021/10/28 02:18:17;;;;;;;18.38;9.23;;;4.40;99.90;;;3.62;94.21;61346.25;5086991;28;20460;-70
2021/10/28 02:20:44;;;;;;;22.83;11.02;;;4.40;99.90;;;3.62;94.52;61345.50;5103901;28;20162;-70
2021/10/28 02:23:11;;;;;;;19.45;10.55;;;4.40;99.90;;;3.60;96.01;61344.16;5074698;28;20040;-70
2021/10/28 02:25:38;;;;;;;21.60;9.98;;;4.40;99.90;;;3.59;94.86;61343.53;5074558;28;20075;-70
2021/10/28 02:28:05;;;;;;;16.15;8.05;;;4.30;99.90;;;3.59;94.42;61343.16;5075162;28;20173;-70
2021/10/28 02:30:33;;;;;;;40.25;11.43;;;4.30;99.90;;;3.57;95.07;61341.25;5084608;28;20460;-70
2021/10/28 02:33:00;;;;;;;88.20;13.65;;;4.30;99.90;;;3.55;97.25;61338.97;5062013;28;20044;-70
2021/10/28 02:35:28;;;;;;;83.30;16.02;;;4.30;99.90;;;3.53;97.12;61336.31;5075759;28;20072;-71
2021/10/28 02:37:55;;;;;;;42.38;13.05;;;4.30;99.90;;;3.52;96.87;61335.06;5072552;28;20072;-70
2021/10/28 02:40:22;;;;;;;31.90;11.27;;;4.40;99.90;;;3.51;96.10;61334.97;5083936;28;20590;-71
2021/10/28 02:42:49;;;;;;;19.08;9.15;;;4.30;99.90;;;3.51;96.24;61333.50;5074485;28;20091;-70
2021/10/28 02:45:16;;;;;;;22.42;9.85;;;4.40;99.90;;;3.49;95.91;61332.38;5076784;28;20052;-71
2021/10/28 02:47:43;;;;;;;27.50;10.63;;;4.40;99.90;;;3.48;95.55;61330.56;5073076;28;20443;-71
2021/10/28 02:50:11;;;;;;;55.10;12.07;;;4.30;99.90;;;3.46;95.65;61328.78;5091572;28;20105;-70
2021/10/28 02:52:38;;;;;;;22.80;8.65;;;4.30;99.90;;;3.44;95.51;61327.00;5051121;28;20507;-70
2021/10/28 02:55:05;;;;;;;24.30;9.93;;;4.20;99.90;;;3.43;95.61;61325.22;5088539;28;20044;-70
2021/10/28 02:57:32;;;;;;;16.75;9.57;;;4.20;99.90;;;3.41;95.08;61323.63;5085293;28;20040;-70
2021/10/28 03:00:00;;;;;;;19.20;9.18;;;4.20;99.90;;;3.40;94.82;61322.28;5092180;28;20048;-71
2021/10/28 03:02:27;;;;;;;21.65;9.02;;;4.20;99.90;;;3.38;95.54;61320.53;5062858;28;20164;-71
2021/10/28 03:04:55;;;;;;;62.17;14.52;;;4.10;99.90;;;3.37;95.46;61319.47;5089616;28;20054;-70
2021/10/28 03:07:22;;;;;;;44.83;11.63;;;4.10;99.90;;;3.36;94.63;61318.81;5086637;28;20063;-70
2021/10/28 03:09:50;;;;;;;23.98;10.50;;;4.10;99.90;;;3.35;94.78;61317.47;5089995;28;20068;-70
2021/10/28 03:12:17;;;;;;;26.40;9.55;;;4.10;99.90;;;3.33;93.67;61315.72;5108647;28;20040;-70
2021/10/28 03:14:52;;;;;;;32.35;10.32;;;4.10;99.90;;;3.32;93.35;61314.75;5063206;28;20127;-71
2021/10/28 03:27:44;;;;;;;111.45;19.45;;;3.80;99.90;;;3.19;98.00;61300.19;5092212;28;20044;-71
2021/10/28 03:30:12;;;;;;;138.57;19.00;;;3.80;99.90;;;3.15;99.14;61296.56;5092216;28;20082;-71
2021/10/28 03:32:40;;;;;;;25.60;8.95;;;3.70;99.90;;;3.13;98.01;61293.97;5069885;28;20123;-71
2021/10/28 03:35:11;;;;;;;17.38;7.93;;;3.70;99.90;;;3.12;97.87;61293.34;5086103;28;20075;-70
2021/10/28 03:57:35;;;;;;;13.18;6.25;;;3.80;99.90;;;3.07;94.89;61288.09;5066099;28;20044;-70
2021/10/28 04:29:05;;;;;;;34.92;7.15;;;3.50;99.90;;;2.83;94.37;61264.50;5087080;28;20127;-70
2021/10/28 04:31:36;;;;;;;20.52;8.32;;;3.50;99.90;;;2.81;94.04;61262.38;5084634;28;20075;-70
2021/10/28 04:34:10;;;;;;;18.10;7.50;;;3.50;99.90;;;2.79;94.40;61260.63;5087036;28;20055;-70
2021/10/28 04:36:38;;;;;;;13.35;6.15;;;3.50;99.90;;;2.78;94.27;61260.00;5086889;28;20537;-71
2021/10/28 04:39:10;;;;;;;100.63;14.88;;;3.40;99.90;;;2.74;96.69;61256.16;5090280;28;20432;-71
2021/10/28 04:41:39;;;;;;;62.15;14.30;;;3.40;99.90;;;2.70;98.03;61252.09;5069418;28;20136;-70
2021/10/28 04:44:08;;;;;;;80.47;16.65;;;3.40;99.90;;;2.66;98.63;61247.75;5087122;28;20044;-70
2021/10/28 04:46:36;;;;;;;21.42;10.20;;;3.30;99.90;;;2.64;97.44;61244.88;5069635;28;20409;-70
2021/10/28 04:49:03;;;;;;;21.33;10.57;;;3.30;99.90;;;2.61;96.97;61242.00;5084148;28;20071;-71
2021/10/28 04:51:31;;;;;;;25.15;10.38;;;3.30;99.90;;;2.59;96.39;61239.56;5069465;28;20044;-70
2021/10/28 04:53:58;;;;;;;19.52;8.75;;;3.30;99.90;;;2.57;95.88;61238.25;5070776;28;20051;-70
2021/10/28 04:56:25;;;;;;;22.67;12.18;;;3.30;99.90;;;2.55;95.55;61235.47;5089741;28;20099;-70
2021/10/28 04:58:52;;;;;;;17.95;8.40;;;3.30;99.90;;;2.53;94.89;61233.91;5061462;28;20047;-70
2021/10/28 05:01:21;;;;;;;15.52;8.20;;;3.20;99.90;;;2.51;94.71;61231.97;5092960;28;20072;-70
2021/10/28 05:03:49;;;;;;;26.38;10.13;;;3.20;99.90;;;2.50;94.90;61230.59;5069147;28;20040;-70
2021/10/28 05:06:16;;;;;;;20.98;8.20;;;3.20;99.90;;;2.48;94.59;61228.84;5081949;28;20497;-71
2021/10/28 05:08:44;;;;;;;24.13;8.63;;;3.20;99.90;;;2.46;94.06;61226.69;5089600;28;20044;-70
2021/10/28 05:11:15;;;;;;;18.70;10.15;;;3.10;99.90;;;2.45;94.68;61225.50;5090457;28;20206;-70
2021/10/28 05:13:42;;;;;;;21.17;10.45;;;3.20;99.90;;;2.44;94.60;61224.03;5072214;28;20067;-70
2021/10/28 05:16:09;;;;;;;20.83;9.45;;;3.20;99.90;;;2.42;94.64;61222.13;5094761;28;20105;-70
2021/10/28 05:18:40;;;;;;;24.35;12.02;;;3.20;99.90;;;2.40;94.61;61220.28;5094968;28;20044;-70
2021/10/28 05:21:14;;;;;;;33.75;13.15;;;3.20;99.90;;;2.38;94.23;61219.22;5089754;28;20048;-70
2021/10/28 05:23:41;;;;;;;24.10;11.15;;;3.10;99.90;;;2.37;94.29;61217.75;5072045;28;20545;-70
2021/10/28 05:26:09;;;;;;;84.13;16.27;;;3.10;99.90;;;2.35;94.49;61215.75;5089072;28;20040;-70
2021/10/28 05:28:36;;;;;;;23.88;13.48;;;3.00;99.90;;;2.33;95.56;61213.47;5090268;28;20135;-70
2021/10/28 05:31:04;;;;;;;44.33;13.15;;;3.00;99.90;;;2.31;95.08;61211.91;5100872;28;20235;-70
2021/10/28 05:33:31;;;;;;;34.58;11.85;;;3.00;99.90;;;2.30;94.60;61210.63;5080434;28;20055;-70
2021/10/28 05:35:58;;;;;;;27.52;10.70;;;3.00;99.90;;;2.29;94.11;61210.00;5072252;28;20084;-69
2021/10/28 05:38:25;;;;;;;41.30;12.45;;;3.00;99.90;;;2.28;94.15;61208.75;5085218;28;20369;-70
2021/10/28 05:40:52;;;;;;;20.83;10.40;;;3.10;99.90;;;2.27;93.74;61207.50;5071025;28;20068;-69
2021/10/28 05:43:19;;;;;;;56.88;13.25;;;3.10;99.90;;;2.25;94.58;61205.75;5089259;28;20090;-70
2021/10/28 05:45:48;;;;;;;47.33;14.68;;;3.10;99.90;;;2.24;94.59;61204.00;5089316;28;20134;-70
2021/10/28 05:48:15;;;;;;;23.08;11.45;;;3.00;99.90;;;2.22;94.21;61202.78;5091258;28;20052;-70
2021/10/28 05:50:45;;;;;;;23.73;9.80;;;3.00;99.90;;;2.22;93.38;61202.28;5089950;28;20072;-71
2021/10/28 05:53:12;;;;;;;31.15;12.02;;;3.00;99.90;;;2.19;94.19;61200.28;5089503;28;20091;-70
2021/10/28 05:55:39;;;;;;;22.85;10.13;;;3.00;99.90;;;2.18;94.47;61199.13;5090996;28;20127;-69
2021/10/28 05:58:06;;;;;;;29.95;11.60;;;3.00;99.90;;;2.17;93.99;61198.59;5071152;28;20529;-71
2021/10/28 06:00:33;;;;;;;32.88;11.02;;;3.00;99.90;;;2.17;94.02;61198.09;5057020;28;20223;-69
2021/10/28 06:03:00;;;;;;;28.40;10.20;;;3.00;99.90;;;2.16;93.79;61197.38;5088795;28;20545;-70
2021/10/28 06:05:31;;;;;;;26.00;8.77;;;3.10;99.90;;;2.16;94.67;61196.84;5088295;28;20044;-71
2021/10/28 06:07:57;;;;;;;18.73;9.68;;;3.10;99.90;;;2.15;94.16;61196.47;5093555;28;20136;-70
2021/10/28 06:10:25;;;;;;;26.25;12.13;;;3.10;99.90;;;2.15;93.35;61196.63;5057837;28;20306;-70
2021/10/28 06:12:54;;;;;;;18.02;10.40;;;3.10;99.90;;;2.15;93.88;61195.91;5074823;28;20071;-70
2021/10/28 06:15:21;;;;;;;27.65;11.68;;;3.10;99.90;;;2.14;94.74;61195.38;5091678;28;20075;-70
2021/10/28 06:18:37;;;;;;;49.20;13.57;;;3.10;99.90;;;2.13;95.38;61193.91;5092221;28;20044;-70
2021/10/28 06:20:35;;;;;;;95.40;16.75;;;3.20;99.90;;;2.11;96.64;61191.56;5060217;28;20494;-70
2021/10/28 06:23:02;;;;;;;134.52;25.63;;;3.20;99.90;;;2.08;98.41;61189.19;5093149;28;20493;-71
2021/10/28 06:25:30;;;;;;;64.90;16.60;;;3.20;99.90;;;2.05;99.84;61186.06;5075668;28;20071;-70
2021/10/28 06:27:57;;;;;;;133.23;16.90;;;3.20;99.90;;;2.01;100.00;61182.59;5075581;28;20468;-69
2021/10/28 06:30:24;;;;;;;109.82;15.00;;;3.10;99.90;;;1.98;100.00;61178.91;5091333;28;20127;-70
2021/10/28 06:32:55;;;;;;;88.78;13.93;;;3.10;99.90;;;1.96;100.00;61177.66;5075085;28;20466;-70
2021/10/28 06:35:24;;;;;;;74.18;9.52;;;3.10;99.90;;;1.94;100.00;61175.06;5075996;28;20139;-70
2021/10/28 06:37:52;;;;;;;41.83;7.82;;;3.10;99.90;;;1.91;100.00;61172.06;5056406;28;20044;-70
2021/10/28 06:40:23;;;;;;;78.55;12.13;;;3.10;99.90;;;1.88;100.00;61169.72;5073500;28;20059;-71
2021/10/28 06:42:51;;;;;;;31.05;7.78;;;3.10;99.90;;;1.87;100.00;61168.09;5074939;28;20474;-71
2021/10/28 06:45:19;;;;;;;14.75;5.25;;;3.00;99.90;;;1.87;100.00;61168.41;5081799;28;20072;-71
2021/10/28 06:47:47;;;;;;;16.38;4.93;;;3.00;99.90;;;1.88;99.79;61169.50;5075093;28;20130;-70
2021/10/28 06:50:18;;;;;;;25.70;7.30;;;3.20;99.90;;;1.88;98.94;61169.88;5088513;28;20136;-71
2021/10/28 06:52:54;;;;;;;21.67;7.90;;;3.20;99.90;;;1.89;98.95;61170.09;5077176;28;20481;-70
2021/10/28 06:55:37;;;;;;;17.60;8.10;;;3.20;99.90;;;1.90;99.19;61171.47;5098155;28;20056;-71
2021/10/28 07:03:29;;;;;;;24.65;7.68;;;3.40;99.90;;;1.97;96.60;61177.88;5075586;28;20051;-71
2021/10/28 07:06:02;;;;;;;64.25;9.30;;;3.40;99.90;;;1.99;96.02;61180.59;5091430;28;20337;-71
2021/10/28 07:08:29;;;;;;;;;;;3.40;99.90;;;2.01;96.19;61182.94;5078288;28;20040;-70
2021/10/28 07:10:58;;;;;;;20.45;7.20;;;3.40;99.90;;;2.03;95.39;61184.78;5092242;28;19955;-70
2021/10/28 07:13:29;;;;;;;16.15;6.05;;;3.40;99.90;;;2.06;95.07;61187.19;5081833;28;20532;-71
2021/10/28 07:16:10;;;;;;;16.38;5.15;;;3.50;99.90;;;2.09;95.05;61190.41;5091078;28;20135;-70
2021/10/28 07:18:46;;;;;;;18.90;7.53;;;3.50;99.90;;;2.12;94.53;61193.81;5104282;28;20044;-71
2021/10/28 07:24:17;;;;;;;75.20;13.10;;;3.70;99.90;;;2.18;94.71;61199.31;5091590;28;20131;-70
2021/10/28 08:05:24;;;;;;;39.65;12.40;;;4.80;99.90;;;2.72;100.00;61255.69;5099198;28;20143;-71
2021/10/28 08:16:44;;;;;;;80.53;19.60;;;6.20;99.90;;;3.26;100.00;61310.59;5084026;28;19927;-70
2021/10/28 08:21:58;;;;;;;182.70;22.73;;;6.80;99.90;;;3.56;100.00;61341.06;5084749;28;20083;-69
2021/10/28 08:29:58;;;;;;;388.98;34.75;;;7.30;99.90;;;4.00;100.00;61386.22;5007578;28;20084;-68
2021/10/28 08:32:25;;;;;;;116.05;19.92;;;7.50;99.90;;;4.15;100.00;61400.94;5070342;28;20130;-69
2021/10/28 08:34:53;;;;;;;208.95;27.65;;;7.60;99.90;;;4.28;100.00;61414.75;5089711;28;20456;-69
2021/10/28 08:37:22;;;;;;;262.38;27.23;;;7.80;99.90;;;4.40;100.00;61427.50;5085904;28;20135;-69
2021/10/28 08:39:52;;;;;;;236.40;28.10;;;7.90;99.90;;;4.52;100.00;61440.09;5086970;28;20135;-69
2021/10/28 08:42:22;;;;;;;211.02;25.27;;;8.00;99.90;;;4.64;100.00;61451.81;5066130;28;20168;-69
2021/10/28 08:44:52;;;;;;;116.10;18.98;;;8.10;99.90;;;4.76;100.00;61463.69;5077109;28;20083;-69
2021/10/28 08:47:21;;;;;;;123.32;22.60;;;8.10;99.90;;;4.90;100.00;61477.94;5090874;28;20199;-69
2021/10/28 08:49:54;;;;;;;88.22;17.70;;;8.30;99.90;;;5.03;100.00;61491.06;5090585;28;20094;-69
2021/10/28 08:55:59;;;;;;;60.22;15.27;;;8.50;99.90;;;5.30;100.00;61518.09;5072048;28;20482;-69
2021/10/28 09:44:05;;;;;;;39.42;12.88;;;9.60;99.90;;;7.19;99.22;61711.78;5077204;28;20119;-69
2021/10/28 09:46:48;;;;;;;28.75;13.30;;;9.70;99.90;;;7.26;100.00;61719.16;5074226;28;20072;-69
2021/10/28 09:52:07;;;;;;;34.42;13.23;;;9.90;99.90;;;7.44;98.09;61737.28;5063127;28;20132;-69
2021/10/28 10:00:39;;;;;;;21.15;9.77;;;10.40;99.90;;;7.78;94.96;61772.47;5066823;28;20490;-68
2021/10/28 10:03:22;;;;;;;19.05;10.40;;;10.70;99.90;;;7.91;94.80;61786.03;5088112;28;20048;-69
2021/10/28 10:06:12;;;;;;;34.47;11.77;;;11.00;99.90;;;8.04;93.79;61799.75;5083527;28;20051;-68
2021/10/28 10:08:41;;;;;;;16.15;9.50;;;11.20;99.90;;;8.19;91.95;61815.25;5078906;28;20071;-69
2021/10/28 10:11:08;;;;;;;17.63;11.05;;;11.40;99.90;;;8.34;91.83;61830.59;5091577;28;20083;-69
2021/10/28 10:13:35;;;;;;;19.50;9.63;;;11.60;99.90;;;8.48;90.21;61845.28;5069863;28;20041;-70
2021/10/28 10:16:03;;;;;;;15.07;9.40;;;11.70;99.90;;;8.61;90.46;61858.03;5059769;28;20135;-69
2021/10/28 10:18:36;;;;;;;23.05;10.57;;;11.80;99.90;;;8.69;91.63;61866.84;5086004;28;20119;-70
2021/10/28 10:21:19;;;;;;;22.75;12.88;;;11.70;99.90;;;8.75;92.48;61872.81;5073169;28;20197;-70
2021/10/28 11:28:24;;;;;;;17.10;11.18;;;13.60;99.90;;;10.80;84.28;62084.47;5097469;28;20524;-69
2021/10/28 12:16:55;;;;;;;17.73;12.55;;;12.60;99.90;;;11.43;85.78;62149.72;5074010;28;20513;-69
2021/10/28 12:45:33;;;;;;;13.98;10.63;;;12.80;99.90;;;11.43;86.06;62150.69;5070401;28;20135;-69
2021/10/28 12:47:35;;;;;;;14.90;10.75;;;12.80;99.90;;;11.44;85.40;62152.63;5075154;28;20492;-69
2021/10/28 12:53:12;;;;;;;15.10;10.82;;;13.10;99.90;;;11.51;83.34;62160.03;5055713;28;20060;-69
2021/10/28 13:02:14;;;;;;;15.40;10.43;;;13.40;99.90;;;11.63;81.89;62172.44;5071516;28;20131;-69
2021/10/28 13:04:27;;;;;;;16.13;10.30;;;13.80;99.90;;;11.73;81.08;62182.94;5053905;28;20071;-69
2021/10/28 13:51:11;;;;;;;15.95;11.93;;;21.90;99.90;;;14.41;63.35;62461.34;5089146;28;20328;-69
2021/10/28 14:59:52;;;;;;;22.67;10.80;;;23.50;96.30;;;17.29;55.73;62762.50;5079658;28;20476;-70
2021/10/28 15:29:17;;;;;;;23.48;14.35;;;22.60;96.20;;;17.41;57.88;62774.34;5088348;28;20048;-70
2021/10/28 15:34:51;;;;;;;21.63;12.95;;;21.30;97.20;;;17.29;59.64;62762.00;5086255;28;20068;-70
2021/10/28 15:56:50;;;;;;;22.95;16.10;;;14.10;99.90;;;16.02;73.39;62630.00;5082739;28;20136;-70
2021/10/28 16:24:11;;;;;;;131.02;26.58;;;11.00;99.90;;;13.43;87.59;62360.19;5081000;28;20509;-70
2021/10/28 16:26:41;;;;;;;99.93;26.98;;;;;;;13.17;88.87;62333.16;5086579;28;20044;-70
2021/10/28 16:29:11;;;;;;;122.18;32.03;;;;;;;12.91;90.68;62305.56;5083704;28;20080;-70
2021/10/28 16:31:41;;;;;;;52.22;25.10;;;;;;;12.68;90.43;62281.69;5084363;28;20211;-70
2021/10/28 16:34:09;;;;;;;41.30;19.48;;;;;;;12.46;86.14;62258.88;5065251;28;20095;-70
2021/10/28 16:36:36;;;;;;;42.92;19.25;;;;;;;12.27;84.79;62238.28;5071297;28;20127;-70
2021/10/28 16:39:09;;;;;;;41.53;18.88;;;;;;;12.07;84.17;62217.84;5063736;28;20457;-70
2021/10/28 16:41:38;;;;;;;32.22;17.70;;;;;;;11.86;87.12;62196.25;5062188;28;20123;-70
2021/10/28 16:44:06;;;;;;;26.85;15.95;;;;;;;11.67;86.63;62176.09;5088144;28;20154;-70
2021/10/28 16:46:36;;;;;;;49.38;20.50;;;;;;;11.49;85.46;62157.69;5051907;28;20048;-70
2021/10/28 16:49:05;;;;;;;32.13;15.40;;;;;;;11.32;84.08;62139.28;5067644;28;20063;-70
2021/10/28 16:51:33;;;;;;;44.60;22.73;;;;;;;11.14;86.37;62120.72;5053199;28;20048;-70
2021/10/28 16:54:00;;;;;;;64.93;30.30;;;;;;;10.96;87.49;62101.97;5076096;28;20429;-69
2021/10/28 16:56:28;;;;;;;76.40;34.80;;;;;;;10.79;86.82;62085.41;5078129;28;20427;-70
2021/10/28 16:58:55;;;;;;;71.57;31.95;;;;;;;10.64;86.37;62070.13;5080087;28;20048;-70
2021/10/28 17:01:24;;;;;;;62.70;31.15;;;;;;;10.49;87.06;62055.13;5061689;28;20139;-69
2021/10/28 17:03:52;;;;;;;49.10;26.45;;;;;;;10.34;86.01;62040.28;5074553;28;20043;-70
2021/10/28 17:06:21;;;;;;;45.05;22.90;;;;;;;10.21;86.41;62026.31;5088429;28;20134;-69
2021/10/28 17:08:56;;;;;;;37.95;17.80;;;;;;;10.07;87.46;62011.63;5069841;28;20140;-69
2021/10/28 17:11:28;;;;;;;30.27;17.87;;;;;;;9.92;88.31;61996.56;5086176;28;20048;-70
2021/10/28 17:13:56;;;;;;;23.63;13.63;;;;;;;9.79;87.31;61983.06;5069775;28;20136;-70
2021/10/28 17:16:24;;;;;;;28.25;14.02;;;;;;;9.67;87.23;61970.09;5085724;28;20127;-69
2021/10/28 17:18:52;;;;;;;28.27;13.73;;;;;;;9.55;86.12;61957.91;5089116;28;20139;-69
2021/10/28 17:21:19;;;;;;;22.13;12.75;;;;;;;9.43;86.01;61946.00;5081109;28;20496;-69
2021/10/28 17:23:50;;;;;;;24.17;14.02;;;;;;;9.31;86.58;61933.16;5085436;28;20052;-70
2021/10/28 17:26:17;;;;;;;28.08;15.23;;;;;;;9.20;86.80;61921.72;5076696;28;20129;-69
2021/10/28 17:28:45;;;;;;;33.47;17.85;;;;;;;9.09;87.01;61911.28;5088671;28;20044;-69
2021/10/28 17:31:12;;;;;;;37.35;20.60;;;;;;;8.99;87.95;61899.66;5063762;28;20080;-70
2021/10/28 17:33:40;;;;;;;39.58;20.60;;;;;;;8.88;87.24;61888.75;5080394;28;20468;-69
2021/10/28 17:36:07;;;;;;;38.28;21.50;;;;;;;8.78;86.67;61878.25;5089626;28;20131;-69
2021/10/28 17:38:35;;;;;;;56.45;30.05;;;;;;;8.68;87.72;61867.69;5084279;28;20076;-69
2021/10/28 17:41:06;;;;;;;54.42;28.85;;;;;;;8.58;87.72;61856.97;5087593;28;20468;-70
2021/10/28 17:43:52;;;;;;;34.60;18.67;;;;;;;8.47;86.36;61845.91;5088224;28;20040;-70
2021/10/28 17:46:20;;;;;;;41.47;22.70;;;;;;;8.38;86.57;61836.81;5069219;28;20106;-69
2021/10/28 17:48:49;;;;;;;45.13;21.30;;;;;;;8.29;86.23;61827.53;5085782;28;20101;-69
2021/10/28 17:51:17;;;;;;;43.33;22.27;;;9.30;99.90;;;8.20;86.41;61818.75;5091762;28;20493;-69
2021/10/28 17:53:46;;;;;;;44.35;22.20;;;7.70;99.90;;;8.11;86.69;61809.66;5072235;28;20134;-70
2021/10/28 17:56:15;;;;;;;36.90;21.77;;;7.70;99.90;;;8.02;87.98;61800.22;5077824;28;20123;-70
2021/10/28 17:58:43;;;;;;;26.20;16.33;;;;;;;7.92;87.85;61790.72;5089110;28;20079;-70
2021/10/28 18:01:54;;;;;;;37.53;18.48;;;;;;;7.82;90.17;61780.41;5077146;28;20493;-70
2021/10/28 18:04:24;;;;;;;32.45;18.17;;;;;;;7.73;89.65;61771.19;5084821;28;20131;-69
2021/10/28 18:07:36;;;;;;;41.83;22.05;;;;;;;7.64;91.47;61761.75;5091267;28;20130;-70
2021/10/28 18:10:09;;;;;;;34.88;19.80;;;;;;;7.56;90.98;61753.06;5069417;28;20501;-70
2021/10/28 18:12:41;;;;;;;30.35;16.92;;;;;;;7.47;90.74;61744.66;5087164;28;20044;-70
2021/10/28 18:15:12;;;;;;;31.80;17.85;;;;;;;7.39;91.49;61736.25;5085331;28;20509;-69
2021/10/28 18:17:44;;;;;;;44.65;22.50;;;;;;;7.31;92.32;61728.28;5086212;28;20044;-69
2021/10/28 18:20:56;;;;;;;45.63;25.63;;;;;;;7.23;93.61;61720.31;5090291;28;20048;-69
2021/10/28 18:23:49;;;;;;;33.15;18.08;;;;;;;7.16;91.57;61712.56;5070779;28;20040;-70
2021/10/28 18:26:17;;;;;;;34.47;18.73;;;;;;;7.09;90.74;61705.66;5092758;28;20127;-69
2021/10/28 18:29:19;;;;;;;36.60;20.85;;;;;;;7.01;90.67;61698.25;5085897;28;20131;-70
2021/10/28 18:31:58;;;;;;;33.92;20.30;;;;;;;6.95;91.22;61691.59;5075865;28;20084;-70
2021/10/28 18:34:27;;;;;;;43.17;22.45;;;;;;;6.89;90.18;61685.34;5077539;28;20080;-69
2021/10/28 18:36:55;;;;;;;70.57;18.65;;;;;;;6.81;89.48;61677.16;5082797;28;20072;-70
2021/10/28 18:39:22;;;;;;;39.00;20.40;;;;;;;6.74;90.92;61669.41;5086576;28;20084;-69
2021/10/28 18:41:53;;;;;;;57.72;30.08;;;;;;;6.67;93.26;61661.84;5080260;28;20099;-69
2021/10/28 18:44:22;;;;;;;28.65;16.35;;;;;;;6.60;91.55;61655.03;5072146;28;20508;-69
2021/10/28 18:46:54;;;;;;;105.13;21.80;;;;;;;6.53;92.51;61647.41;5087135;28;20528;-69
2021/10/28 18:49:22;;;;;;;58.50;24.77;;;;;;;6.46;95.75;61640.47;5072470;28;20135;-69
2021/10/28 18:51:49;;;;;;;33.80;19.60;;;;;;;6.40;95.15;61633.94;5061738;28;20072;-69
2021/10/28 18:54:18;;;;;;;30.65;16.30;;;;;;;6.35;94.01;61628.97;5097918;28;20048;-69
2021/10/28 18:56:46;;;;;;;50.05;20.40;;;;;;;6.31;93.26;61624.22;5086554;28;20074;-69
2021/10/28 18:59:15;;;;;;;74.22;29.55;;;;;;;6.25;94.96;61617.97;5090003;28;20090;-71
2021/10/28 19:01:45;;;;;;;58.72;28.58;;;;;;;6.18;96.35;61611.59;5074408;28;20048;-71
2021/10/28 19:04:13;;;;;;;83.88;29.15;;;;;;;6.13;98.33;61605.66;5088938;28;20098;-71
2021/10/28 19:06:42;;;;;;;152.27;34.42;;;;;;;6.07;98.87;61600.38;5092728;28;20134;-71
2021/10/28 19:09:10;;;;;;;525.03;49.67;;;;;;;6.03;100.00;61595.91;5088369;28;20040;-71
2021/10/28 19:11:37;;;;;;;533.80;44.60;;;;;;;6.00;100.00;61592.22;5052374;28;20049;-71
2021/10/28 19:14:04;;;;;;;431.13;34.75;;;;;;;5.97;100.00;61590.06;5054103;28;20143;-71
2021/10/28 19:16:32;;;;;;;373.45;31.05;;;;;;;5.96;100.00;61588.00;5088121;28;20523;-71
2021/10/28 19:19:01;;;;;;;423.27;38.10;;;;;;;5.94;100.00;61586.47;5069469;28;20036;-71
2021/10/28 19:21:29;;;;;;;463.65;35.40;;;;;;;5.93;100.00;61585.09;5074218;28;20048;-70
2021/10/28 19:23:57;;;;;;;478.00;32.47;;;;;;;5.92;100.00;61583.47;5076210;28;20040;-70
2021/10/28 19:26:24;;;;;;;505.13;32.47;;;;;;;5.90;100.00;61581.81;5072796;28;20135;-71
2021/10/28 19:28:51;;;;;;;426.90;30.05;;;;;;;5.89;100.00;61580.59;5091093;28;20067;-71
2021/10/28 19:31:23;;;;;;;500.42;33.67;;;;;;;5.87;100.00;61578.72;5059558;28;20132;-71